createdAt,value
2022-09-22T00:01:18.945Z,88.08
2022-09-22T00:03:53.690Z,87.62
2022-09-22T00:06:23.926Z,89.37
2022-09-22T00:08:54.414Z,88.48
2022-09-22T00:11:28.924Z,89.57
2022-09-22T00:14:02.531Z,88.15
2022-09-22T00:16:33.526Z,89.41
2022-09-22T00:19:01.403Z,88.71
2022-09-22T00:21:30.904Z,83.34
2022-09-22T00:24:02.750Z,81.79
2022-09-22T00:26:31.325Z,85.96
2022-09-22T00:28:59.595Z,84.05
2022-09-22T00:31:27.632Z,88.04
2022-09-22T00:33:56.049Z,89.23
2022-09-22T00:36:25.836Z,81.98
2022-09-22T00:38:56.850Z,79.03
2022-09-22T00:41:31.032Z,79.46
2022-09-22T00:44:26.520Z,78.09
2022-09-22T00:46:56.093Z,77.49
2022-09-22T00:49:29.822Z,83.72
2022-09-22T00:51:57.611Z,85.78
2022-09-22T00:54:25.157Z,84.37
2022-09-22T00:57:05.223Z,84.58
2022-09-22T00:59:33.125Z,83.74
2022-09-22T01:02:00.542Z,79.76
2022-09-22T01:04:29.132Z,80.28
2022-09-22T01:06:58.006Z,78.56
2022-09-22T01:09:25.996Z,82.26
2022-09-22T01:11:53.505Z,77.63
2022-09-22T01:14:38.111Z,80.28
2022-09-22T01:17:44.700Z,78.49
2022-09-22T01:20:27.271Z,82.02
2022-09-22T01:23:32.023Z,86.07
2022-09-22T01:26:27.802Z,85.01
2022-09-22T01:29:23.510Z,88.13
2022-09-22T01:32:01.370Z,87.42
2022-09-22T01:34:40.524Z,87.40
2022-09-22T01:37:12.318Z,82.36
2022-09-22T01:39:46.163Z,82.50
2022-09-22T01:42:35.683Z,78.62
2022-09-22T01:45:12.148Z,78.47
2022-09-22T01:47:47.530Z,78.97
2022-09-22T01:50:28.232Z,81.14
2022-09-22T01:52:59.486Z,81.45
2022-09-22T01:55:38.666Z,81.67
2022-09-22T01:58:13.702Z,85.73
2022-09-22T02:00:44.676Z,86.60
2022-09-22T02:03:25.772Z,87.95
2022-09-22T02:06:00.680Z,91.19
2022-09-22T02:08:33.514Z,89.85
2022-09-22T02:11:04.291Z,89.54
2022-09-22T02:13:31.911Z,90.97
2022-09-22T02:16:02.356Z,91.29
2022-09-22T02:18:39.707Z,88.27
2022-09-22T02:21:07.348Z,86.56
2022-09-22T02:23:35.923Z,87.22
2022-09-22T02:26:05.073Z,87.62
2022-09-22T02:28:33.758Z,84.09
2022-09-22T02:31:19.495Z,83.99
2022-09-22T02:33:48.795Z,80.73
2022-09-22T02:36:43.553Z,78.45
2022-09-22T02:39:19.511Z,80.21
2022-09-22T02:42:18.018Z,79.74
2022-09-22T02:44:52.205Z,83.63
2022-09-22T02:47:25.547Z,88.73
2022-09-22T02:49:55.206Z,86.23
2022-09-22T02:52:24.282Z,89.03
2022-09-22T02:54:54.028Z,89.90
2022-09-22T02:57:21.842Z,81.79
2022-09-22T02:59:49.703Z,86.28
2022-09-22T03:02:17.167Z,85.12
2022-09-22T03:04:44.802Z,84.84
2022-09-22T03:07:12.219Z,85.06
2022-09-22T03:09:39.836Z,86.36
2022-09-22T03:12:07.586Z,86.58
2022-09-22T03:14:35.163Z,87.24
2022-09-22T03:17:02.523Z,86.73
2022-09-22T03:19:30.304Z,87.40
2022-09-22T03:21:57.737Z,88.13
2022-09-22T03:24:25.190Z,88.98
2022-09-22T03:26:52.869Z,84.46
2022-09-22T03:29:20.236Z,86.75
2022-09-22T03:31:47.795Z,86.73
2022-09-22T03:34:15.590Z,87.11
2022-09-22T03:36:43.091Z,89.00
2022-09-22T03:39:10.445Z,89.09
2022-09-22T03:41:38.136Z,90.41
2022-09-22T03:44:05.925Z,91.88
2022-09-22T03:46:34.580Z,93.82
2022-09-22T03:49:03.356Z,91.02
2022-09-22T03:51:33.098Z,87.76
2022-09-22T03:54:00.784Z,88.56
2022-09-22T03:56:28.452Z,90.50
2022-09-22T03:58:56.164Z,91.24
2022-09-22T04:01:23.680Z,87.62
2022-09-22T04:03:51.331Z,88.64
2022-09-22T04:06:19.709Z,89.59
2022-09-22T04:08:47.108Z,87.45
2022-09-22T04:11:14.750Z,88.79
2022-09-22T04:13:46.193Z,90.91
2022-09-22T04:16:14.202Z,90.73
2022-09-22T04:18:41.974Z,91.02
2022-09-22T04:21:09.454Z,92.18
2022-09-22T04:23:36.891Z,91.59
2022-09-22T04:26:05.112Z,92.24
2022-09-22T04:28:32.722Z,91.94
2022-09-22T04:31:00.410Z,91.37
2022-09-22T04:33:28.256Z,91.96
2022-09-22T04:35:55.731Z,92.06
2022-09-22T04:38:23.078Z,90.80
2022-09-22T04:40:52.880Z,91.83
2022-09-22T04:43:20.372Z,93.88
2022-09-22T04:45:48.985Z,93.05
2022-09-22T04:48:17.128Z,90.26
2022-09-22T04:50:48.137Z,90.81
2022-09-22T04:53:15.943Z,91.94
2022-09-22T04:55:43.699Z,91.88
2022-09-22T04:58:11.469Z,93.83
2022-09-22T05:00:39.154Z,92.33
2022-09-22T05:03:11.036Z,91.67
2022-09-22T05:05:38.704Z,93.07
2022-09-22T05:08:06.974Z,94.19
2022-09-22T05:10:35.825Z,88.37
2022-09-22T05:13:03.882Z,87.57
2022-09-22T05:15:33.180Z,88.21
2022-09-22T05:18:00.908Z,89.98
2022-09-22T05:20:28.453Z,90.07
2022-09-22T05:22:55.957Z,89.46
2022-09-22T05:25:23.701Z,88.74
2022-09-22T05:27:53.330Z,89.82
2022-09-22T05:30:25.546Z,83.94
2022-09-22T05:32:53.398Z,80.63
2022-09-22T05:35:23.263Z,87.11
2022-09-22T05:37:52.029Z,89.78
2022-09-22T05:40:20.788Z,90.82
2022-09-22T05:42:53.866Z,87.31
2022-09-22T05:45:22.075Z,83.24
2022-09-22T05:47:49.750Z,81.00
2022-09-22T05:50:18.483Z,86.52
2022-09-22T05:52:46.169Z,91.95
2022-09-22T05:55:13.783Z,87.47
2022-09-22T05:57:41.721Z,83.93
2022-09-22T06:00:10.697Z,84.92
2022-09-22T06:02:39.621Z,89.38
2022-09-22T06:05:07.571Z,89.88
2022-09-22T06:07:34.976Z,88.39
2022-09-22T06:10:02.492Z,88.57
2022-09-22T06:12:30.214Z,89.08
2022-09-22T06:14:57.683Z,88.43
2022-09-22T06:17:25.050Z,81.89
2022-09-22T06:19:52.750Z,79.57
2022-09-22T06:22:20.453Z,81.11
2022-09-22T06:24:48.818Z,81.30
2022-09-22T06:27:16.680Z,80.35
2022-09-22T06:29:44.143Z,86.39
2022-09-22T06:32:11.513Z,89.36
2022-09-22T06:34:39.238Z,83.81
2022-09-22T06:37:09.429Z,82.38
2022-09-22T06:39:37.844Z,83.29
2022-09-22T06:42:06.225Z,84.90
2022-09-22T06:44:33.949Z,83.81
2022-09-22T06:47:05.398Z,84.05
2022-09-22T06:49:33.204Z,84.42
2022-09-22T06:52:00.694Z,81.63
2022-09-22T06:54:28.136Z,81.57
2022-09-22T06:56:55.817Z,84.38
2022-09-22T06:59:23.326Z,81.80
2022-09-22T07:01:50.825Z,80.41
2022-09-22T07:04:20.173Z,80.40
2022-09-22T07:06:50.407Z,81.95
2022-09-22T07:09:18.066Z,80.60
2022-09-22T07:11:47.408Z,79.03
2022-09-22T07:14:15.128Z,79.25
2022-09-22T07:16:44.423Z,79.52
2022-09-22T07:19:12.038Z,78.30
2022-09-22T07:21:40.505Z,76.49
2022-09-22T07:24:08.833Z,75.20
2022-09-22T07:26:39.210Z,76.73
2022-09-22T07:29:11.615Z,76.65
2022-09-22T07:31:40.508Z,78.09
2022-09-22T07:34:09.633Z,75.73
2022-09-22T07:36:37.982Z,74.58
2022-09-22T07:39:07.957Z,77.79
2022-09-22T07:41:41.811Z,73.26
2022-09-22T07:44:29.952Z,75.85
2022-09-22T07:46:57.760Z,75.68
2022-09-22T07:49:25.656Z,74.98
2022-09-22T07:51:55.066Z,72.90
2022-09-22T07:54:23.577Z,73.83
2022-09-22T07:56:58.381Z,72.72
2022-09-22T07:59:26.570Z,73.19
2022-09-22T08:01:54.391Z,72.48
2022-09-22T08:04:23.734Z,72.27
2022-09-22T08:06:54.404Z,74.02
2022-09-22T08:09:22.702Z,73.82
2022-09-22T08:11:50.339Z,71.77
2022-09-22T08:14:18.639Z,69.44
2022-09-22T08:16:46.515Z,68.01
2022-09-22T08:19:14.589Z,70.09
2022-09-22T08:21:49.149Z,71.20
2022-09-22T08:24:22.357Z,70.37
2022-09-22T08:26:52.559Z,64.80
2022-09-22T08:29:20.682Z,62.82
2022-09-22T08:31:49.535Z,66.48
2022-09-22T08:34:18.194Z,67.46
2022-09-22T08:36:48.730Z,67.77
2022-09-22T08:39:17.755Z,68.14
2022-09-22T08:41:56.319Z,63.79
2022-09-22T08:44:49.497Z,65.38
2022-09-22T08:47:39.528Z,66.65
2022-09-22T08:50:37.997Z,62.43
2022-09-22T08:53:08.981Z,62.62
2022-09-22T08:55:37.850Z,61.95
2022-09-22T08:58:13.995Z,59.39
2022-09-22T09:00:46.496Z,57.37
2022-09-22T09:03:24.010Z,57.81
2022-09-22T09:05:51.616Z,56.76
2022-09-22T09:08:22.375Z,56.29
2022-09-22T09:10:59.431Z,57.76
2022-09-22T09:13:54.199Z,56.82
2022-09-22T09:16:38.814Z,57.10
2022-09-22T09:19:31.911Z,56.38
2022-09-22T09:22:04.517Z,58.39
2022-09-22T09:27:26.509Z,51.05
2022-09-22T09:30:03.165Z,50.77
2022-09-22T09:32:34.533Z,50.31
2022-09-22T09:35:02.813Z,53.25
2022-09-22T09:37:30.667Z,52.16
2022-09-22T09:40:01.783Z,49.49
2022-09-22T09:42:33.180Z,50.26
2022-09-22T09:45:02.853Z,50.48
2022-09-22T09:47:47.712Z,51.44
2022-09-22T09:50:15.831Z,52.25
2022-09-22T09:52:44.954Z,48.77
2022-09-22T09:55:27.039Z,52.07
2022-09-22T09:58:11.971Z,52.70
2022-09-22T10:00:57.121Z,50.66
2022-09-22T10:03:27.938Z,51.18
2022-09-22T10:06:00.214Z,51.71
2022-09-22T10:08:28.632Z,50.69
2022-09-22T10:11:01.978Z,52.93
2022-09-22T10:13:35.772Z,53.45
2022-09-22T10:16:24.264Z,53.36
2022-09-22T10:19:21.106Z,52.78
2022-09-22T10:21:49.020Z,53.94
2022-09-22T10:24:29.038Z,52.23
2022-09-22T10:26:57.311Z,49.20
2022-09-22T10:29:25.828Z,48.81
2022-09-22T10:31:59.718Z,47.78
2022-09-22T10:34:34.869Z,47.02
2022-09-22T10:37:07.389Z,46.45
2022-09-22T10:39:43.422Z,43.48
2022-09-22T10:42:37.986Z,42.15
2022-09-22T10:45:07.230Z,41.67
2022-09-22T10:47:42.761Z,40.44
2022-09-22T10:50:31.944Z,42.93
2022-09-22T10:53:09.846Z,44.03
2022-09-22T10:55:56.092Z,41.59
2022-09-22T10:58:31.014Z,44.57
2022-09-22T11:01:13.068Z,42.05
2022-09-22T11:03:47.426Z,44.82
2022-09-22T11:06:42.943Z,42.49
2022-09-22T11:09:56.906Z,44.12
2022-09-22T11:12:51.299Z,44.42
2022-09-22T11:15:27.738Z,41.86
2022-09-22T11:18:04.532Z,40.83
2022-09-22T11:21:27.462Z,41.82
2022-09-22T11:24:14.770Z,44.32
2022-09-22T11:26:54.462Z,44.31
2022-09-22T11:29:49.123Z,44.76
2022-09-22T11:32:41.935Z,44.05
2022-09-22T11:35:25.247Z,41.92
2022-09-22T11:38:04.793Z,41.60
2022-09-22T11:43:53.473Z,40.50
2022-09-22T11:46:35.751Z,41.04
2022-09-22T11:49:22.018Z,43.07
2022-09-22T11:52:01.992Z,39.80
2022-09-22T11:54:54.364Z,39.24
2022-09-22T11:57:24.923Z,38.46
2022-09-22T12:00:18.892Z,38.08
2022-09-22T12:02:55.367Z,36.70
2022-09-22T12:05:42.168Z,37.54
2022-09-22T12:08:24.646Z,36.78
2022-09-22T12:10:52.837Z,36.11
2022-09-22T12:13:28.529Z,38.25
2022-09-22T12:16:31.957Z,38.14
2022-09-22T12:19:05.246Z,39.65
2022-09-22T12:21:46.360Z,38.79
2022-09-22T12:24:14.115Z,39.26
2022-09-22T12:26:46.315Z,39.95
2022-09-22T12:29:14.342Z,40.41
2022-09-22T12:31:50.171Z,39.37
2022-09-22T12:34:20.745Z,39.25
2022-09-22T12:36:50.610Z,40.57
2022-09-22T12:39:27.141Z,41.91
2022-09-22T12:42:00.331Z,40.81
2022-09-22T12:44:46.914Z,41.69
2022-09-22T12:47:21.443Z,42.12
2022-09-22T12:49:56.569Z,41.88
2022-09-22T12:52:42.357Z,40.90
2022-09-22T12:55:22.852Z,42.33
2022-09-22T12:58:10.068Z,41.88
2022-09-22T13:00:40.990Z,43.66
2022-09-22T13:03:26.682Z,43.31
2022-09-22T13:05:55.739Z,44.05
2022-09-22T13:08:25.801Z,43.78
2022-09-22T13:10:57.847Z,44.04
2022-09-22T13:13:36.749Z,44.12
2022-09-22T13:16:14.518Z,45.23
2022-09-22T13:18:43.575Z,45.84
2022-09-22T13:21:13.753Z,45.93
2022-09-22T13:23:59.072Z,44.83
2022-09-22T13:26:40.840Z,45.49
2022-09-22T13:29:21.271Z,47.44
2022-09-22T13:31:54.401Z,47.85
2022-09-22T13:34:32.297Z,47.97
2022-09-22T13:37:01.033Z,47.60
2022-09-22T13:39:34.540Z,47.42
2022-09-22T13:42:08.971Z,47.55
2022-09-22T13:44:39.930Z,46.22
2022-09-22T13:47:13.711Z,46.04
2022-09-22T13:49:43.943Z,46.57
2022-09-22T13:52:19.352Z,46.81
2022-09-22T13:54:50.306Z,46.58
2022-09-22T13:57:24.415Z,44.29
2022-09-22T13:59:52.597Z,43.86
2022-09-22T14:02:27.001Z,44.42
2022-09-22T14:05:02.099Z,45.11
2022-09-22T14:07:30.803Z,45.11
2022-09-22T14:09:59.571Z,45.01
2022-09-22T14:12:30.302Z,43.19
2022-09-22T14:15:32.796Z,44.97
2022-09-22T14:18:01.653Z,45.02
2022-09-22T14:20:29.395Z,45.98
2022-09-22T14:22:56.899Z,44.44
2022-09-22T14:25:24.305Z,44.17
2022-09-22T14:27:59.698Z,44.16
2022-09-22T14:30:31.140Z,44.04
2022-09-22T14:33:02.151Z,43.36
2022-09-22T14:35:32.070Z,43.58
2022-09-22T14:38:13.505Z,45.11
2022-09-22T14:40:54.789Z,44.83
2022-09-22T14:43:22.604Z,45.06
2022-09-22T14:46:38.793Z,44.49
2022-09-22T14:49:34.515Z,45.92
2022-09-22T14:52:01.900Z,46.87
2022-09-22T14:54:31.020Z,46.65
2022-09-22T14:57:07.462Z,44.69
2022-09-22T14:59:56.492Z,45.49
2022-09-22T15:02:33.405Z,47.00
2022-09-22T15:05:04.973Z,47.52
2022-09-22T15:07:37.058Z,49.07
2022-09-22T15:10:19.879Z,47.43
2022-09-22T15:12:49.805Z,45.85
2022-09-22T15:15:31.867Z,45.45
2022-09-22T15:18:18.862Z,51.33
2022-09-22T15:20:50.050Z,53.75
2022-09-22T15:23:27.311Z,56.96
2022-09-22T15:25:55.759Z,60.15
2022-09-22T15:28:24.669Z,60.58
2022-09-22T15:30:53.028Z,61.82
2022-09-22T15:33:21.632Z,58.96
2022-09-22T15:36:13.004Z,57.92
2022-09-22T15:38:41.509Z,58.65
2022-09-22T15:41:14.212Z,58.76
2022-09-22T15:43:42.835Z,57.23
2022-09-22T15:46:34.118Z,58.48
2022-09-22T15:49:24.989Z,62.36
2022-09-22T15:51:52.970Z,66.86
2022-09-22T15:54:22.368Z,65.07
2022-09-22T15:56:52.616Z,67.88
2022-09-22T15:59:28.005Z,69.87
2022-09-22T16:01:57.128Z,66.96
2022-09-22T16:04:31.451Z,66.14
2022-09-22T16:07:02.394Z,67.18
2022-09-22T16:09:30.586Z,67.03
2022-09-22T16:11:57.966Z,68.82
2022-09-22T16:14:25.473Z,66.81
2022-09-22T16:16:53.148Z,69.60
2022-09-22T16:19:20.557Z,71.07
2022-09-22T16:21:52.832Z,70.98
2022-09-22T16:24:22.680Z,68.39
2022-09-22T16:26:51.816Z,68.43
2022-09-22T16:29:19.684Z,68.97
2022-09-22T16:31:47.100Z,71.79
2022-09-22T16:34:14.567Z,71.44
2022-09-22T16:36:43.204Z,69.81
2022-09-22T16:39:10.642Z,69.35
2022-09-22T16:41:44.139Z,67.59
2022-09-22T16:44:11.972Z,69.27
2022-09-22T16:46:39.436Z,69.64
2022-09-22T16:49:12.782Z,69.75
2022-09-22T16:51:42.429Z,69.45
2022-09-22T16:54:13.910Z,72.45
2022-09-22T16:56:45.356Z,76.08
2022-09-22T16:59:16.251Z,77.57
2022-09-22T17:01:44.153Z,72.53
2022-09-22T17:04:13.103Z,76.74
2022-09-22T17:06:41.707Z,77.09
2022-09-22T17:09:10.409Z,79.79
2022-09-22T17:11:40.222Z,80.03
2022-09-22T17:14:12.606Z,78.78
2022-09-22T17:16:45.658Z,80.08
2022-09-22T17:19:19.417Z,80.95
2022-09-22T17:21:48.651Z,81.40
2022-09-22T17:24:16.153Z,79.72
2022-09-22T17:26:54.896Z,80.17
2022-09-22T17:29:25.459Z,82.50
2022-09-22T17:31:57.382Z,79.95
2022-09-22T17:34:29.205Z,78.37
2022-09-22T17:36:57.298Z,77.56
2022-09-22T17:39:26.385Z,76.23
2022-09-22T17:41:55.109Z,75.97
2022-09-22T17:44:23.170Z,76.11
2022-09-22T17:47:11.298Z,75.46
2022-09-22T17:49:58.362Z,76.76
2022-09-22T17:52:31.818Z,78.63
2022-09-22T17:55:08.067Z,82.75
2022-09-22T17:57:38.435Z,82.69
2022-09-22T18:00:08.729Z,78.92
2022-09-22T18:02:37.005Z,77.40
2022-09-22T18:05:09.985Z,75.76
2022-09-22T18:07:40.165Z,75.97
2022-09-22T18:10:09.768Z,74.96
2022-09-22T18:12:37.226Z,75.71
2022-09-22T18:15:05.559Z,74.31
2022-09-22T18:17:43.920Z,76.59
2022-09-22T18:20:14.112Z,76.82
2022-09-22T18:22:48.378Z,79.66
2022-09-22T18:25:19.376Z,78.60
2022-09-22T18:27:48.491Z,75.21
2022-09-22T18:30:19.117Z,71.02
2022-09-22T18:32:47.647Z,73.70
2022-09-22T18:35:15.231Z,70.34
2022-09-22T18:37:43.367Z,70.99
2022-09-22T18:40:12.550Z,69.45
2022-09-22T18:42:43.714Z,68.13
2022-09-22T18:45:12.715Z,69.07
2022-09-22T18:47:42.032Z,75.79
2022-09-22T18:50:11.001Z,77.34
2022-09-22T18:52:42.751Z,78.14
2022-09-22T18:55:11.651Z,75.19
2022-09-22T18:57:39.366Z,69.93
2022-09-22T19:00:07.491Z,75.12
2022-09-22T19:02:35.228Z,75.25
2022-09-22T19:05:03.100Z,76.13
2022-09-22T19:07:43.872Z,75.88
2022-09-22T19:10:14.838Z,77.96
2022-09-22T19:12:42.702Z,75.65
2022-09-22T19:15:16.756Z,76.67
2022-09-22T19:17:47.016Z,75.90
2022-09-22T19:20:21.255Z,74.09
2022-09-22T19:22:50.360Z,74.02
2022-09-22T19:25:18.819Z,72.12
2022-09-22T19:27:46.272Z,71.52
2022-09-22T19:30:14.073Z,75.82
2022-09-22T19:32:41.462Z,75.21
2022-09-22T19:35:09.790Z,76.88
2022-09-22T19:37:37.471Z,76.29
2022-09-22T19:40:06.715Z,72.58
2022-09-22T19:42:40.089Z,74.21
2022-09-22T19:45:09.034Z,72.31
2022-09-22T19:47:37.025Z,71.41
2022-09-22T19:50:08.141Z,68.25
2022-09-22T19:52:36.645Z,68.98
2022-09-22T19:55:05.857Z,66.92
2022-09-22T19:57:33.231Z,68.77
2022-09-22T20:00:01.027Z,74.99
2022-09-22T20:02:28.440Z,73.32
2022-09-22T20:04:56.110Z,73.69
2022-09-22T20:07:27.762Z,72.61
2022-09-22T20:09:56.477Z,75.28
2022-09-22T20:12:24.403Z,73.76
2022-09-22T20:14:51.811Z,75.09
2022-09-22T20:17:19.173Z,76.22
2022-09-22T20:19:46.849Z,77.90
2022-09-22T20:22:20.286Z,73.00
2022-09-22T20:24:54.025Z,78.18
2022-09-22T20:27:26.429Z,73.64
2022-09-22T20:29:57.331Z,76.89
2022-09-22T20:32:26.246Z,74.22
2022-09-22T20:34:55.419Z,72.58
2022-09-22T20:37:23.170Z,77.67
2022-09-22T20:39:50.893Z,80.26
2022-09-22T20:42:18.895Z,75.76
2022-09-22T20:44:47.037Z,76.94
2022-09-22T20:47:18.731Z,80.95
2022-09-22T20:49:50.860Z,81.79
2022-09-22T20:52:20.237Z,76.69
2022-09-22T20:54:48.823Z,71.47
2022-09-22T20:57:16.826Z,72.92
2022-09-22T20:59:45.851Z,75.93
2022-09-22T21:02:14.819Z,76.47
2022-09-22T21:04:42.366Z,72.02
2022-09-22T21:07:11.452Z,75.58
2022-09-22T21:09:57.909Z,77.09
2022-09-22T21:12:30.756Z,77.77
2022-09-22T21:14:59.089Z,77.08
2022-09-22T21:17:27.842Z,76.43
2022-09-22T21:19:57.666Z,76.63
2022-09-22T21:22:28.071Z,76.31
2022-09-22T21:24:56.415Z,74.10
2022-09-22T21:27:25.124Z,72.83
2022-09-22T21:29:54.022Z,72.01
2022-09-22T21:32:21.358Z,69.64
2022-09-22T21:34:48.992Z,67.27
2022-09-22T21:37:16.636Z,65.58
2022-09-22T21:39:43.955Z,68.45
2022-09-22T21:42:11.279Z,71.64
2022-09-22T21:44:39.244Z,73.63
2022-09-22T21:47:06.839Z,73.96
2022-09-22T21:49:34.179Z,73.28
2022-09-22T21:52:01.838Z,74.47
2022-09-22T21:54:31.157Z,70.99
2022-09-22T21:56:58.500Z,71.49
2022-09-22T21:59:26.226Z,73.92
2022-09-22T22:01:53.632Z,71.97
2022-09-22T22:04:21.859Z,67.29
2022-09-22T22:06:49.291Z,70.95
2022-09-22T22:09:22.056Z,75.30
2022-09-22T22:11:55.595Z,75.89
2022-09-22T22:14:26.431Z,76.54
2022-09-22T22:16:55.099Z,76.06
2022-09-22T22:19:25.644Z,74.72
2022-09-22T22:21:53.913Z,73.62
2022-09-22T22:24:28.807Z,74.38
2022-09-22T22:27:01.351Z,75.31
2022-09-22T22:29:34.696Z,75.96
2022-09-22T22:32:04.144Z,74.86
2022-09-22T22:34:31.727Z,78.57
2022-09-22T22:36:59.532Z,79.41
2022-09-22T22:39:26.874Z,78.97
2022-09-22T22:41:57.303Z,77.34
2022-09-22T22:44:24.642Z,76.64
2022-09-22T22:46:51.965Z,74.53
2022-09-22T22:49:19.818Z,74.70
2022-09-22T22:51:49.151Z,74.69
2022-09-22T22:54:16.688Z,75.00
2022-09-22T22:56:46.829Z,75.52
2022-09-22T22:59:18.164Z,75.04
2022-09-22T23:01:45.837Z,74.69
2022-09-22T23:04:13.293Z,74.54
2022-09-22T23:06:44.450Z,76.42
2022-09-22T23:09:15.024Z,77.20
2022-09-22T23:11:43.269Z,76.99
2022-09-22T23:14:12.017Z,77.87
2022-09-22T23:16:44.933Z,78.30
2022-09-22T23:19:14.295Z,78.42
2022-09-22T23:21:42.089Z,79.65
2022-09-22T23:24:09.440Z,79.41
2022-09-22T23:26:37.613Z,78.10
2022-09-22T23:29:06.071Z,79.04
2022-09-22T23:31:33.524Z,80.23
2022-09-22T23:34:01.203Z,80.58
2022-09-22T23:36:29.319Z,79.40
2022-09-22T23:39:03.475Z,80.37
2022-09-22T23:41:33.140Z,79.12
2022-09-22T23:44:00.724Z,80.79
2022-09-22T23:46:28.140Z,79.71
2022-09-22T23:48:55.934Z,79.76
2022-09-22T23:51:24.118Z,78.85
2022-09-22T23:53:51.831Z,78.54
2022-09-22T23:56:19.711Z,79.58
2022-09-22T23:58:47.605Z,81.22
